sensor_id;sensor_type;location;lat;lon;timestamp;P1;durP1;ratioP1;P2;durP2;ratioP2
60468;SDS011;46316;47.582;10.238;2022-10-14T00:01:01;1.90;;;0.98;;
60468;SDS011;46316;47.582;10.238;2022-10-14T00:03:28;1.27;;;0.80;;
60468;SDS011;46316;47.582;10.238;2022-10-14T00:05:54;1.92;;;0.82;;
60468;SDS011;46316;47.582;10.238;2022-10-14T00:08:19;1.23;;;0.70;;
60468;SDS011;46316;47.582;10.238;2022-10-14T00:10:45;0.85;;;0.60;;
60468;SDS011;46316;47.582;10.238;2022-10-14T00:13:11;0.90;;;0.80;;
60468;SDS011;46316;47.582;10.238;2022-10-14T00:15:37;1.38;;;0.90;;
60468;SDS011;46316;47.582;10.238;2022-10-14T00:18:04;0.75;;;0.75;;
60468;SDS011;46316;47.582;10.238;2022-10-14T00:20:31;3.92;;;1.10;;
60468;SDS011;46316;47.582;10.238;2022-10-14T00:22:56;1.00;;;0.90;;
60468;SDS011;46316;47.582;10.238;2022-10-14T00:25:22;3.63;;;1.30;;
60468;SDS011;46316;47.582;10.238;2022-10-14T00:27:50;2.67;;;1.30;;
60468;SDS011;46316;47.582;10.238;2022-10-14T00:30:15;2.35;;;0.75;;
60468;SDS011;46316;47.582;10.238;2022-10-14T00:32:41;1.70;;;1.08;;
60468;SDS011;46316;47.582;10.238;2022-10-14T00:35:07;1.90;;;0.90;;
60468;SDS011;46316;47.582;10.238;2022-10-14T00:37:33;3.65;;;0.93;;
60468;SDS011;46316;47.582;10.238;2022-10-14T00:39:58;0.70;;;0.70;;
60468;SDS011;46316;47.582;10.238;2022-10-14T00:42:24;0.98;;;0.70;;
60468;SDS011;46316;47.582;10.238;2022-10-14T00:47:15;1.50;;;0.80;;
60468;SDS011;46316;47.582;10.238;2022-10-14T00:49:41;0.70;;;0.70;;
60468;SDS011;46316;47.582;10.238;2022-10-14T00:52:14;0.60;;;0.55;;
60468;SDS011;46316;47.582;10.238;2022-10-14T00:54:43;2.85;;;0.80;;
60468;SDS011;46316;47.582;10.238;2022-10-14T00:57:24;0.47;;;0.47;;
60468;SDS011;46316;47.582;10.238;2022-10-14T00:59:51;1.35;;;0.68;;
60468;SDS011;46316;47.582;10.238;2022-10-14T01:02:20;0.60;;;0.60;;
60468;SDS011;46316;47.582;10.238;2022-10-14T01:04:46;0.52;;;0.38;;
60468;SDS011;46316;47.582;10.238;2022-10-14T01:07:25;0.60;;;0.60;;
60468;SDS011;46316;47.582;10.238;2022-10-14T01:10:13;0.43;;;0.43;;
60468;SDS011;46316;47.582;10.238;2022-10-14T01:13:10;0.70;;;0.60;;
60468;SDS011;46316;47.582;10.238;2022-10-14T01:15:59;0.73;;;0.70;;
60468;SDS011;46316;47.582;10.238;2022-10-14T01:31:55;0.70;;;0.70;;
60468;SDS011;46316;47.582;10.238;2022-10-14T01:34:32;0.82;;;0.50;;
60468;SDS011;46316;47.582;10.238;2022-10-14T01:37:04;0.70;;;0.60;;
60468;SDS011;46316;47.582;10.238;2022-10-14T01:39:40;0.73;;;0.73;;
60468;SDS011;46316;47.582;10.238;2022-10-14T01:42:19;0.82;;;0.60;;
60468;SDS011;46316;47.582;10.238;2022-10-14T01:44:58;2.63;;;0.70;;
60468;SDS011;46316;47.582;10.238;2022-10-14T01:47:29;0.55;;;0.50;;
60468;SDS011;46316;47.582;10.238;2022-10-14T01:50:00;1.90;;;0.60;;
60468;SDS011;46316;47.582;10.238;2022-10-14T01:52:33;2.50;;;0.82;;
60468;SDS011;46316;47.582;10.238;2022-10-14T01:55:05;0.98;;;0.65;;
60468;SDS011;46316;47.582;10.238;2022-10-14T01:57:36;0.60;;;0.60;;
60468;SDS011;46316;47.582;10.238;2022-10-14T02:00:05;1.90;;;0.63;;
60468;SDS011;46316;47.582;10.238;2022-10-14T02:02:34;0.40;;;0.40;;
60468;SDS011;46316;47.582;10.238;2022-10-14T02:05:02;0.40;;;0.40;;
60468;SDS011;46316;47.582;10.238;2022-10-14T02:07:38;2.05;;;0.70;;
60468;SDS011;46316;47.582;10.238;2022-10-14T02:10:16;1.13;;;0.70;;
60468;SDS011;46316;47.582;10.238;2022-10-14T02:13:56;1.60;;;0.60;;
60468;SDS011;46316;47.582;10.238;2022-10-14T02:16:05;0.50;;;0.50;;
60468;SDS011;46316;47.582;10.238;2022-10-14T02:18:40;2.70;;;0.70;;
60468;SDS011;46316;47.582;10.238;2022-10-14T02:21:37;1.13;;;0.75;;
60468;SDS011;46316;47.582;10.238;2022-10-14T02:24:12;1.10;;;0.75;;
60468;SDS011;46316;47.582;10.238;2022-10-14T02:26:43;2.35;;;0.88;;
60468;SDS011;46316;47.582;10.238;2022-10-14T02:29:10;0.85;;;0.57;;
60468;SDS011;46316;47.582;10.238;2022-10-14T02:31:36;1.13;;;0.77;;
60468;SDS011;46316;47.582;10.238;2022-10-14T02:34:05;0.95;;;0.68;;
60468;SDS011;46316;47.582;10.238;2022-10-14T02:36:35;2.13;;;0.70;;
60468;SDS011;46316;47.582;10.238;2022-10-14T02:39:01;0.47;;;0.47;;
60468;SDS011;46316;47.582;10.238;2022-10-14T02:41:30;1.10;;;0.55;;
60468;SDS011;46316;47.582;10.238;2022-10-14T02:43:59;1.02;;;0.50;;
60468;SDS011;46316;47.582;10.238;2022-10-14T02:46:25;3.60;;;0.65;;
60468;SDS011;46316;47.582;10.238;2022-10-14T02:48:50;0.77;;;0.38;;
60468;SDS011;46316;47.582;10.238;2022-10-14T02:51:16;1.05;;;0.43;;
60468;SDS011;46316;47.582;10.238;2022-10-14T02:53:42;0.40;;;0.32;;
60468;SDS011;46316;47.582;10.238;2022-10-14T02:56:07;0.50;;;0.50;;
60468;SDS011;46316;47.582;10.238;2022-10-14T02:58:37;0.73;;;0.40;;
60468;SDS011;46316;47.582;10.238;2022-10-14T03:01:03;0.80;;;0.65;;
60468;SDS011;46316;47.582;10.238;2022-10-14T03:03:29;1.90;;;0.65;;
60468;SDS011;46316;47.582;10.238;2022-10-14T03:05:54;0.50;;;0.50;;
60468;SDS011;46316;47.582;10.238;2022-10-14T03:08:20;1.92;;;0.70;;
60468;SDS011;46316;47.582;10.238;2022-10-14T03:10:46;1.92;;;0.70;;
60468;SDS011;46316;47.582;10.238;2022-10-14T03:13:12;1.00;;;0.63;;
60468;SDS011;46316;47.582;10.238;2022-10-14T03:15:38;0.52;;;0.50;;
60468;SDS011;46316;47.582;10.238;2022-10-14T03:18:04;0.52;;;0.52;;
60468;SDS011;46316;47.582;10.238;2022-10-14T03:20:29;0.65;;;0.65;;
60468;SDS011;46316;47.582;10.238;2022-10-14T03:22:55;1.05;;;0.80;;
60468;SDS011;46316;47.582;10.238;2022-10-14T03:25:21;0.65;;;0.65;;
60468;SDS011;46316;47.582;10.238;2022-10-14T03:27:48;0.60;;;0.60;;
60468;SDS011;46316;47.582;10.238;2022-10-14T03:30:14;0.88;;;0.85;;
60468;SDS011;46316;47.582;10.238;2022-10-14T03:32:39;2.67;;;0.80;;
60468;SDS011;46316;47.582;10.238;2022-10-14T03:35:05;1.35;;;0.93;;
60468;SDS011;46316;47.582;10.238;2022-10-14T03:37:31;1.20;;;1.10;;
60468;SDS011;46316;47.582;10.238;2022-10-14T03:39:57;1.60;;;0.80;;
60468;SDS011;46316;47.582;10.238;2022-10-14T03:42:22;1.23;;;0.90;;
60468;SDS011;46316;47.582;10.238;2022-10-14T03:44:48;3.08;;;1.10;;
60468;SDS011;46316;47.582;10.238;2022-10-14T03:47:13;2.47;;;1.38;;
60468;SDS011;46316;47.582;10.238;2022-10-14T03:49:39;2.80;;;1.30;;
60468;SDS011;46316;47.582;10.238;2022-10-14T03:52:05;0.90;;;0.90;;
60468;SDS011;46316;47.582;10.238;2022-10-14T03:54:30;1.00;;;0.90;;
60468;SDS011;46316;47.582;10.238;2022-10-14T03:56:56;2.08;;;0.98;;
60468;SDS011;46316;47.582;10.238;2022-10-14T03:59:21;1.23;;;0.93;;
60468;SDS011;46316;47.582;10.238;2022-10-14T04:01:47;0.65;;;0.65;;
60468;SDS011;46316;47.582;10.238;2022-10-14T04:04:12;0.93;;;0.85;;
60468;SDS011;46316;47.582;10.238;2022-10-14T04:06:38;0.95;;;0.93;;
60468;SDS011;46316;47.582;10.238;2022-10-14T04:09:04;1.77;;;0.70;;
60468;SDS011;46316;47.582;10.238;2022-10-14T04:11:29;1.10;;;0.90;;
60468;SDS011;46316;47.582;10.238;2022-10-14T04:13:58;0.88;;;0.88;;
60468;SDS011;46316;47.582;10.238;2022-10-14T04:16:24;3.50;;;1.08;;
60468;SDS011;46316;47.582;10.238;2022-10-14T04:18:51;0.98;;;0.88;;
60468;SDS011;46316;47.582;10.238;2022-10-14T04:21:17;0.85;;;0.85;;
60468;SDS011;46316;47.582;10.238;2022-10-14T04:23:43;3.17;;;1.15;;
60468;SDS011;46316;47.582;10.238;2022-10-14T04:26:08;3.10;;;0.85;;
60468;SDS011;46316;47.582;10.238;2022-10-14T04:28:35;1.30;;;1.20;;
60468;SDS011;46316;47.582;10.238;2022-10-14T04:31:01;1.33;;;1.23;;
60468;SDS011;46316;47.582;10.238;2022-10-14T04:33:27;1.30;;;1.20;;
60468;SDS011;46316;47.582;10.238;2022-10-14T04:35:59;1.80;;;1.30;;
60468;SDS011;46316;47.582;10.238;2022-10-14T04:38:27;2.38;;;1.48;;
60468;SDS011;46316;47.582;10.238;2022-10-14T04:40:53;2.65;;;1.60;;
60468;SDS011;46316;47.582;10.238;2022-10-14T04:43:19;1.70;;;1.38;;
60468;SDS011;46316;47.582;10.238;2022-10-14T04:45:45;3.10;;;1.52;;
60468;SDS011;46316;47.582;10.238;2022-10-14T04:48:10;2.50;;;1.70;;
60468;SDS011;46316;47.582;10.238;2022-10-14T04:50:36;4.10;;;1.92;;
60468;SDS011;46316;47.582;10.238;2022-10-14T04:53:01;3.75;;;1.80;;
60468;SDS011;46316;47.582;10.238;2022-10-14T04:55:27;2.05;;;1.90;;
60468;SDS011;46316;47.582;10.238;2022-10-14T04:57:53;4.10;;;2.42;;
60468;SDS011;46316;47.582;10.238;2022-10-14T05:00:18;2.88;;;2.60;;
60468;SDS011;46316;47.582;10.238;2022-10-14T05:02:44;4.90;;;2.67;;
60468;SDS011;46316;47.582;10.238;2022-10-14T05:05:10;3.10;;;2.85;;
60468;SDS011;46316;47.582;10.238;2022-10-14T05:07:36;2.88;;;2.58;;
60468;SDS011;46316;47.582;10.238;2022-10-14T05:10:02;7.45;;;2.63;;
60468;SDS011;46316;47.582;10.238;2022-10-14T05:12:29;2.85;;;2.65;;
60468;SDS011;46316;47.582;10.238;2022-10-14T05:14:56;13.38;;;2.97;;
60468;SDS011;46316;47.582;10.238;2022-10-14T05:17:22;3.40;;;3.08;;
60468;SDS011;46316;47.582;10.238;2022-10-14T05:19:48;2.47;;;2.28;;
60468;SDS011;46316;47.582;10.238;2022-10-14T05:22:13;3.63;;;2.65;;
60468;SDS011;46316;47.582;10.238;2022-10-14T05:24:39;2.30;;;2.00;;
60468;SDS011;46316;47.582;10.238;2022-10-14T05:27:04;3.58;;;2.90;;
60468;SDS011;46316;47.582;10.238;2022-10-14T05:29:30;3.75;;;3.40;;
60468;SDS011;46316;47.582;10.238;2022-10-14T05:31:56;9.40;;;2.92;;
60468;SDS011;46316;47.582;10.238;2022-10-14T05:34:21;5.03;;;2.55;;
60468;SDS011;46316;47.582;10.238;2022-10-14T05:36:47;2.53;;;2.20;;
60468;SDS011;46316;47.582;10.238;2022-10-14T05:39:13;3.50;;;3.20;;
60468;SDS011;46316;47.582;10.238;2022-10-14T05:41:38;3.45;;;3.10;;
60468;SDS011;46316;47.582;10.238;2022-10-14T05:44:05;2.78;;;2.50;;
60468;SDS011;46316;47.582;10.238;2022-10-14T05:46:30;5.20;;;3.45;;
60468;SDS011;46316;47.582;10.238;2022-10-14T05:48:56;3.28;;;1.88;;
60468;SDS011;46316;47.582;10.238;2022-10-14T05:51:24;3.88;;;2.70;;
60468;SDS011;46316;47.582;10.238;2022-10-14T05:53:51;2.90;;;2.60;;
60468;SDS011;46316;47.582;10.238;2022-10-14T05:56:16;4.10;;;2.83;;
60468;SDS011;46316;47.582;10.238;2022-10-14T05:58:42;2.67;;;2.42;;
60468;SDS011;46316;47.582;10.238;2022-10-14T06:01:09;2.80;;;2.50;;
60468;SDS011;46316;47.582;10.238;2022-10-14T06:03:35;3.63;;;2.50;;
60468;SDS011;46316;47.582;10.238;2022-10-14T06:06:00;3.85;;;2.40;;
60468;SDS011;46316;47.582;10.238;2022-10-14T06:08:26;4.80;;;2.63;;
60468;SDS011;46316;47.582;10.238;2022-10-14T06:10:52;5.05;;;4.65;;
60468;SDS011;46316;47.582;10.238;2022-10-14T06:13:20;2.67;;;2.47;;
60468;SDS011;46316;47.582;10.238;2022-10-14T06:15:46;2.70;;;2.50;;
60468;SDS011;46316;47.582;10.238;2022-10-14T06:18:11;3.28;;;2.25;;
60468;SDS011;46316;47.582;10.238;2022-10-14T06:20:37;2.55;;;2.10;;
60468;SDS011;46316;47.582;10.238;2022-10-14T06:23:03;2.75;;;2.03;;
60468;SDS011;46316;47.582;10.238;2022-10-14T06:25:30;2.58;;;1.80;;
60468;SDS011;46316;47.582;10.238;2022-10-14T06:28:02;2.08;;;1.88;;
60468;SDS011;46316;47.582;10.238;2022-10-14T06:30:29;2.88;;;2.05;;
60468;SDS011;46316;47.582;10.238;2022-10-14T06:32:54;2.88;;;2.15;;
60468;SDS011;46316;47.582;10.238;2022-10-14T06:35:20;3.95;;;1.92;;
60468;SDS011;46316;47.582;10.238;2022-10-14T06:37:45;2.28;;;1.65;;
60468;SDS011;46316;47.582;10.238;2022-10-14T06:40:11;2.53;;;1.88;;
60468;SDS011;46316;47.582;10.238;2022-10-14T06:42:36;3.92;;;2.50;;
60468;SDS011;46316;47.582;10.238;2022-10-14T06:45:03;2.30;;;2.10;;
60468;SDS011;46316;47.582;10.238;2022-10-14T06:47:30;2.30;;;2.10;;
60468;SDS011;46316;47.582;10.238;2022-10-14T06:49:56;2.45;;;2.25;;
60468;SDS011;46316;47.582;10.238;2022-10-14T06:52:21;3.13;;;1.98;;
60468;SDS011;46316;47.582;10.238;2022-10-14T06:54:48;2.17;;;1.85;;
60468;SDS011;46316;47.582;10.238;2022-10-14T06:57:14;2.30;;;2.10;;
60468;SDS011;46316;47.582;10.238;2022-10-14T06:59:39;2.97;;;2.33;;
60468;SDS011;46316;47.582;10.238;2022-10-14T07:04:30;1.63;;;1.52;;
60468;SDS011;46316;47.582;10.238;2022-10-14T07:06:56;1.75;;;1.40;;
60468;SDS011;46316;47.582;10.238;2022-10-14T07:09:22;1.60;;;1.42;;
60468;SDS011;46316;47.582;10.238;2022-10-14T07:11:48;1.75;;;1.52;;
60468;SDS011;46316;47.582;10.238;2022-10-14T07:14:14;1.98;;;1.52;;
60468;SDS011;46316;47.582;10.238;2022-10-14T07:16:41;2.10;;;1.30;;
60468;SDS011;46316;47.582;10.238;2022-10-14T07:19:07;1.38;;;1.27;;
60468;SDS011;46316;47.582;10.238;2022-10-14T07:21:33;2.35;;;1.35;;
60468;SDS011;46316;47.582;10.238;2022-10-14T07:23:58;2.38;;;1.60;;
60468;SDS011;46316;47.582;10.238;2022-10-14T07:26:24;1.58;;;1.10;;
60468;SDS011;46316;47.582;10.238;2022-10-14T07:28:49;1.55;;;1.23;;
60468;SDS011;46316;47.582;10.238;2022-10-14T07:31:15;1.60;;;1.27;;
60468;SDS011;46316;47.582;10.238;2022-10-14T07:33:41;1.58;;;1.48;;
60468;SDS011;46316;47.582;10.238;2022-10-14T07:36:08;1.92;;;1.30;;
60468;SDS011;46316;47.582;10.238;2022-10-14T07:38:37;1.88;;;1.40;;
60468;SDS011;46316;47.582;10.238;2022-10-14T07:41:04;3.65;;;1.30;;
60468;SDS011;46316;47.582;10.238;2022-10-14T07:43:41;2.75;;;1.33;;
60468;SDS011;46316;47.582;10.238;2022-10-14T07:46:07;1.20;;;1.10;;
60468;SDS011;46316;47.582;10.238;2022-10-14T07:48:33;2.13;;;1.52;;
60468;SDS011;46316;47.582;10.238;2022-10-14T07:50:59;1.05;;;1.05;;
60468;SDS011;46316;47.582;10.238;2022-10-14T07:53:25;2.83;;;1.00;;
60468;SDS011;46316;47.582;10.238;2022-10-14T07:55:51;2.15;;;0.82;;
60468;SDS011;46316;47.582;10.238;2022-10-14T07:58:20;2.22;;;1.00;;
60468;SDS011;46316;47.582;10.238;2022-10-14T08:00:48;1.27;;;0.90;;
60468;SDS011;46316;47.582;10.238;2022-10-14T08:03:15;0.70;;;0.70;;
60468;SDS011;46316;47.582;10.238;2022-10-14T08:05:42;2.25;;;0.70;;
60468;SDS011;46316;47.582;10.238;2022-10-14T08:08:07;0.85;;;0.85;;
60468;SDS011;46316;47.582;10.238;2022-10-14T08:10:33;1.35;;;1.00;;
60468;SDS011;46316;47.582;10.238;2022-10-14T08:12:59;1.20;;;0.90;;
60468;SDS011;46316;47.582;10.238;2022-10-14T08:15:26;1.58;;;1.15;;
60468;SDS011;46316;47.582;10.238;2022-10-14T08:17:53;2.17;;;1.10;;
60468;SDS011;46316;47.582;10.238;2022-10-14T08:20:19;1.38;;;0.95;;
60468;SDS011;46316;47.582;10.238;2022-10-14T08:22:45;1.30;;;1.10;;
60468;SDS011;46316;47.582;10.238;2022-10-14T08:25:11;2.13;;;0.95;;
60468;SDS011;46316;47.582;10.238;2022-10-14T08:27:36;3.00;;;1.33;;
60468;SDS011;46316;47.582;10.238;2022-10-14T08:30:02;3.60;;;1.00;;
60468;SDS011;46316;47.582;10.238;2022-10-14T08:32:28;1.48;;;1.20;;
60468;SDS011;46316;47.582;10.238;2022-10-14T08:34:54;1.77;;;1.63;;
60468;SDS011;46316;47.582;10.238;2022-10-14T08:37:20;2.78;;;1.33;;
60468;SDS011;46316;47.582;10.238;2022-10-14T08:39:46;1.60;;;1.50;;
60468;SDS011;46316;47.582;10.238;2022-10-14T08:45:00;1.55;;;1.45;;
60468;SDS011;46316;47.582;10.238;2022-10-14T08:47:47;1.60;;;1.50;;
60468;SDS011;46316;47.582;10.238;2022-10-14T08:50:16;1.38;;;1.27;;
60468;SDS011;46316;47.582;10.238;2022-10-14T08:53:05;3.15;;;1.92;;
60468;SDS011;46316;47.582;10.238;2022-10-14T08:58:14;2.70;;;1.42;;
60468;SDS011;46316;47.582;10.238;2022-10-14T09:00:46;1.48;;;1.38;;
60468;SDS011;46316;47.582;10.238;2022-10-14T09:03:16;3.40;;;1.33;;
60468;SDS011;46316;47.582;10.238;2022-10-14T09:05:57;2.58;;;1.50;;
60468;SDS011;46316;47.582;10.238;2022-10-14T09:08:32;2.53;;;1.60;;
60468;SDS011;46316;47.582;10.238;2022-10-14T09:11:02;2.55;;;1.60;;
60468;SDS011;46316;47.582;10.238;2022-10-14T09:13:33;1.65;;;1.30;;
60468;SDS011;46316;47.582;10.238;2022-10-14T09:16:05;1.55;;;1.20;;
60468;SDS011;46316;47.582;10.238;2022-10-14T09:18:38;2.42;;;1.23;;
60468;SDS011;46316;47.582;10.238;2022-10-14T09:21:17;3.15;;;1.45;;
60468;SDS011;46316;47.582;10.238;2022-10-14T09:23:59;1.70;;;1.20;;
60468;SDS011;46316;47.582;10.238;2022-10-14T09:26:47;2.88;;;1.35;;
60468;SDS011;46316;47.582;10.238;2022-10-14T09:29:18;1.73;;;1.30;;
60468;SDS011;46316;47.582;10.238;2022-10-14T09:31:48;1.17;;;1.10;;
60468;SDS011;46316;47.582;10.238;2022-10-14T09:34:15;1.80;;;1.13;;
60468;SDS011;46316;47.582;10.238;2022-10-14T09:36:44;3.63;;;1.50;;
60468;SDS011;46316;47.582;10.238;2022-10-14T09:39:12;1.38;;;1.25;;
60468;SDS011;46316;47.582;10.238;2022-10-14T09:41:38;1.92;;;1.52;;
60468;SDS011;46316;47.582;10.238;2022-10-14T09:46:47;3.75;;;2.67;;
60468;SDS011;46316;47.582;10.238;2022-10-14T09:49:15;2.53;;;2.10;;
60468;SDS011;46316;47.582;10.238;2022-10-14T09:51:50;2.50;;;1.98;;
60468;SDS011;46316;47.582;10.238;2022-10-14T09:54:20;1.92;;;1.65;;
60468;SDS011;46316;47.582;10.238;2022-10-14T09:57:02;2.80;;;1.90;;
60468;SDS011;46316;47.582;10.238;2022-10-14T09:59:31;3.10;;;2.35;;
60468;SDS011;46316;47.582;10.238;2022-10-14T10:02:00;2.55;;;2.35;;
60468;SDS011;46316;47.582;10.238;2022-10-14T10:04:42;3.75;;;2.55;;
60468;SDS011;46316;47.582;10.238;2022-10-14T10:07:24;3.65;;;1.95;;
60468;SDS011;46316;47.582;10.238;2022-10-14T10:09:57;2.72;;;2.25;;
60468;SDS011;46316;47.582;10.238;2022-10-14T10:12:29;5.03;;;2.70;;
60468;SDS011;46316;47.582;10.238;2022-10-14T10:14:57;5.95;;;2.22;;
60468;SDS011;46316;47.582;10.238;2022-10-14T10:17:24;6.75;;;3.25;;
60468;SDS011;46316;47.582;10.238;2022-10-14T10:20:04;13.02;;;5.82;;
60468;SDS011;46316;47.582;10.238;2022-10-14T10:22:32;16.17;;;9.15;;
60468;SDS011;46316;47.582;10.238;2022-10-14T10:27:32;4.63;;;2.85;;
60468;SDS011;46316;47.582;10.238;2022-10-14T10:32:42;2.55;;;1.70;;
60468;SDS011;46316;47.582;10.238;2022-10-14T10:35:39;3.75;;;2.08;;
60468;SDS011;46316;47.582;10.238;2022-10-14T10:51:43;2.47;;;1.52;;
60468;SDS011;46316;47.582;10.238;2022-10-14T10:54:19;3.35;;;2.60;;
60468;SDS011;46316;47.582;10.238;2022-10-14T10:57:08;4.82;;;3.28;;
60468;SDS011;46316;47.582;10.238;2022-10-14T11:00:07;4.63;;;3.25;;
60468;SDS011;46316;47.582;10.238;2022-10-14T11:08:49;8.95;;;2.75;;
60468;SDS011;46316;47.582;10.238;2022-10-14T11:19:55;1.50;;;1.02;;
60468;SDS011;46316;47.582;10.238;2022-10-14T11:25:18;1.48;;;1.08;;
60468;SDS011;46316;47.582;10.238;2022-10-14T11:33:41;3.95;;;2.67;;
60468;SDS011;46316;47.582;10.238;2022-10-14T11:36:43;5.45;;;2.28;;
60468;SDS011;46316;47.582;10.238;2022-10-14T11:42:36;2.78;;;1.77;;
60468;SDS011;46316;47.582;10.238;2022-10-14T11:45:51;2.92;;;2.13;;
60468;SDS011;46316;47.582;10.238;2022-10-14T11:48:20;3.20;;;1.60;;
60468;SDS011;46316;47.582;10.238;2022-10-14T11:51:53;2.33;;;1.65;;
60468;SDS011;46316;47.582;10.238;2022-10-14T11:54:14;2.35;;;1.45;;
60468;SDS011;46316;47.582;10.238;2022-10-14T11:59:35;4.35;;;1.77;;
60468;SDS011;46316;47.582;10.238;2022-10-14T12:02:25;2.00;;;1.80;;
60468;SDS011;46316;47.582;10.238;2022-10-14T12:08:08;2.15;;;1.70;;
60468;SDS011;46316;47.582;10.238;2022-10-14T12:11:08;2.95;;;1.70;;
60468;SDS011;46316;47.582;10.238;2022-10-14T12:13:42;3.08;;;2.17;;
60468;SDS011;46316;47.582;10.238;2022-10-14T12:16:16;2.40;;;1.90;;
60468;SDS011;46316;47.582;10.238;2022-10-14T12:18:46;2.40;;;1.90;;
60468;SDS011;46316;47.582;10.238;2022-10-14T12:21:17;5.07;;;2.00;;
60468;SDS011;46316;47.582;10.238;2022-10-14T12:23:53;1.58;;;1.25;;
60468;SDS011;46316;47.582;10.238;2022-10-14T12:26:36;5.65;;;1.83;;
60468;SDS011;46316;47.582;10.238;2022-10-14T12:29:15;7.60;;;2.80;;
60468;SDS011;46316;47.582;10.238;2022-10-14T12:31:48;5.20;;;2.25;;
60468;SDS011;46316;47.582;10.238;2022-10-14T12:34:39;2.72;;;2.47;;
60468;SDS011;46316;47.582;10.238;2022-10-14T12:42:27;2.33;;;1.77;;
60468;SDS011;46316;47.582;10.238;2022-10-14T12:44:55;2.50;;;1.70;;
60468;SDS011;46316;47.582;10.238;2022-10-14T12:47:29;2.97;;;1.70;;
60468;SDS011;46316;47.582;10.238;2022-10-14T12:50:02;2.85;;;1.77;;
60468;SDS011;46316;47.582;10.238;2022-10-14T12:52:54;2.80;;;1.60;;
60468;SDS011;46316;47.582;10.238;2022-10-14T12:55:23;4.93;;;2.60;;
60468;SDS011;46316;47.582;10.238;2022-10-14T12:57:58;4.00;;;1.67;;
60468;SDS011;46316;47.582;10.238;2022-10-14T13:00:43;2.95;;;1.70;;
60468;SDS011;46316;47.582;10.238;2022-10-14T13:03:19;2.95;;;1.80;;
60468;SDS011;46316;47.582;10.238;2022-10-14T13:05:48;2.05;;;1.65;;
60468;SDS011;46316;47.582;10.238;2022-10-14T13:18:50;2.13;;;1.50;;
60468;SDS011;46316;47.582;10.238;2022-10-14T13:23:54;2.20;;;1.30;;
60468;SDS011;46316;47.582;10.238;2022-10-14T13:26:26;1.30;;;1.20;;
60468;SDS011;46316;47.582;10.238;2022-10-14T13:37:28;3.15;;;1.30;;
60468;SDS011;46316;47.582;10.238;2022-10-14T13:42:44;3.42;;;1.13;;
60468;SDS011;46316;47.582;10.238;2022-10-14T13:45:33;1.63;;;1.30;;
60468;SDS011;46316;47.582;10.238;2022-10-14T13:48:04;2.65;;;2.03;;
60468;SDS011;46316;47.582;10.238;2022-10-14T13:50:34;4.63;;;1.67;;
60468;SDS011;46316;47.582;10.238;2022-10-14T13:53:05;4.05;;;1.70;;
60468;SDS011;46316;47.582;10.238;2022-10-14T13:55:41;2.60;;;1.85;;
60468;SDS011;46316;47.582;10.238;2022-10-14T14:00:37;3.80;;;2.20;;
60468;SDS011;46316;47.582;10.238;2022-10-14T14:06:11;3.97;;;1.35;;
60468;SDS011;46316;47.582;10.238;2022-10-14T14:08:46;2.33;;;1.58;;
60468;SDS011;46316;47.582;10.238;2022-10-14T14:11:22;3.80;;;1.70;;
60468;SDS011;46316;47.582;10.238;2022-10-14T14:14:04;1.52;;;1.42;;
60468;SDS011;46316;47.582;10.238;2022-10-14T14:16:34;4.35;;;1.60;;
60468;SDS011;46316;47.582;10.238;2022-10-14T14:19:02;2.20;;;1.77;;
60468;SDS011;46316;47.582;10.238;2022-10-14T14:21:28;3.35;;;3.05;;
60468;SDS011;46316;47.582;10.238;2022-10-14T14:23:55;4.88;;;2.28;;
60468;SDS011;46316;47.582;10.238;2022-10-14T14:26:35;2.65;;;2.45;;
60468;SDS011;46316;47.582;10.238;2022-10-14T14:29:03;2.28;;;2.08;;
60468;SDS011;46316;47.582;10.238;2022-10-14T14:31:56;4.60;;;2.30;;
60468;SDS011;46316;47.582;10.238;2022-10-14T14:34:23;3.55;;;2.17;;
60468;SDS011;46316;47.582;10.238;2022-10-14T14:36:49;3.15;;;2.63;;
60468;SDS011;46316;47.582;10.238;2022-10-14T14:39:22;26.10;;;23.60;;
60468;SDS011;46316;47.582;10.238;2022-10-14T14:41:54;36.65;;;26.67;;
60468;SDS011;46316;47.582;10.238;2022-10-14T14:44:25;9.05;;;6.57;;
60468;SDS011;46316;47.582;10.238;2022-10-14T14:46:55;7.90;;;4.13;;
60468;SDS011;46316;47.582;10.238;2022-10-14T14:49:34;3.58;;;3.22;;
60468;SDS011;46316;47.582;10.238;2022-10-14T14:52:02;4.05;;;2.78;;
60468;SDS011;46316;47.582;10.238;2022-10-14T14:54:29;3.55;;;2.50;;
60468;SDS011;46316;47.582;10.238;2022-10-14T14:56:56;5.88;;;2.67;;
60468;SDS011;46316;47.582;10.238;2022-10-14T14:59:26;5.72;;;2.67;;
60468;SDS011;46316;47.582;10.238;2022-10-14T15:01:57;4.88;;;3.15;;
60468;SDS011;46316;47.582;10.238;2022-10-14T15:04:25;5.22;;;3.25;;
60468;SDS011;46316;47.582;10.238;2022-10-14T15:09:44;4.35;;;3.50;;
60468;SDS011;46316;47.582;10.238;2022-10-14T15:12:25;5.93;;;3.55;;
60468;SDS011;46316;47.582;10.238;2022-10-14T15:14:55;5.10;;;3.42;;
60468;SDS011;46316;47.582;10.238;2022-10-14T15:19:55;12.55;;;7.10;;
60468;SDS011;46316;47.582;10.238;2022-10-14T15:25:11;9.55;;;6.78;;
60468;SDS011;46316;47.582;10.238;2022-10-14T15:32:46;12.70;;;7.13;;
60468;SDS011;46316;47.582;10.238;2022-10-14T15:35:13;40.53;;;11.02;;
60468;SDS011;46316;47.582;10.238;2022-10-14T15:37:40;30.70;;;10.30;;
60468;SDS011;46316;47.582;10.238;2022-10-14T15:40:10;20.42;;;7.95;;
60468;SDS011;46316;47.582;10.238;2022-10-14T15:42:40;27.23;;;22.90;;
60468;SDS011;46316;47.582;10.238;2022-10-14T15:45:06;12.68;;;11.55;;
60468;SDS011;46316;47.582;10.238;2022-10-14T15:47:32;26.80;;;23.67;;
60468;SDS011;46316;47.582;10.238;2022-10-14T15:49:58;32.05;;;28.67;;
60468;SDS011;46316;47.582;10.238;2022-10-14T15:52:27;26.33;;;23.65;;
60468;SDS011;46316;47.582;10.238;2022-10-14T15:54:54;22.23;;;20.02;;
60468;SDS011;46316;47.582;10.238;2022-10-14T15:57:22;13.77;;;11.52;;
60468;SDS011;46316;47.582;10.238;2022-10-14T15:59:47;6.53;;;5.80;;
60468;SDS011;46316;47.582;10.238;2022-10-14T16:02:15;5.47;;;4.60;;
60468;SDS011;46316;47.582;10.238;2022-10-14T16:04:43;10.57;;;8.48;;
60468;SDS011;46316;47.582;10.238;2022-10-14T16:07:11;6.95;;;4.47;;
60468;SDS011;46316;47.582;10.238;2022-10-14T16:09:38;10.10;;;7.75;;
60468;SDS011;46316;47.582;10.238;2022-10-14T16:12:04;4.70;;;3.67;;
60468;SDS011;46316;47.582;10.238;2022-10-14T16:14:30;4.32;;;3.63;;
60468;SDS011;46316;47.582;10.238;2022-10-14T16:16:55;5.55;;;3.30;;
60468;SDS011;46316;47.582;10.238;2022-10-14T16:19:21;6.15;;;3.92;;
60468;SDS011;46316;47.582;10.238;2022-10-14T16:21:47;3.45;;;2.70;;
60468;SDS011;46316;47.582;10.238;2022-10-14T16:24:17;3.67;;;3.35;;
60468;SDS011;46316;47.582;10.238;2022-10-14T16:26:45;3.70;;;2.28;;
60468;SDS011;46316;47.582;10.238;2022-10-14T16:29:14;2.42;;;2.08;;
60468;SDS011;46316;47.582;10.238;2022-10-14T16:31:42;2.17;;;1.98;;
60468;SDS011;46316;47.582;10.238;2022-10-14T16:34:10;4.40;;;3.65;;
60468;SDS011;46316;47.582;10.238;2022-10-14T16:36:37;4.82;;;4.00;;
60468;SDS011;46316;47.582;10.238;2022-10-14T16:39:03;6.70;;;5.18;;
60468;SDS011;46316;47.582;10.238;2022-10-14T16:41:31;11.43;;;8.38;;
60468;SDS011;46316;47.582;10.238;2022-10-14T16:43:57;9.60;;;7.05;;
60468;SDS011;46316;47.582;10.238;2022-10-14T16:46:23;4.65;;;4.25;;
60468;SDS011;46316;47.582;10.238;2022-10-14T16:49:09;3.63;;;3.33;;
60468;SDS011;46316;47.582;10.238;2022-10-14T16:51:35;5.93;;;4.40;;
60468;SDS011;46316;47.582;10.238;2022-10-14T16:54:00;4.88;;;3.40;;
60468;SDS011;46316;47.582;10.238;2022-10-14T16:56:26;4.63;;;3.40;;